createdAt,value
2019-04-26T00:01:19.418Z,99.90
2019-04-26T00:03:29.774Z,99.90
2019-04-26T00:05:36.257Z,99.90
2019-04-26T00:07:39.515Z,99.90
2019-04-26T00:09:43.625Z,99.90
2019-04-26T00:12:10.707Z,99.90
2019-04-26T00:14:39.153Z,99.90
2019-04-26T00:16:55.461Z,99.90
2019-04-26T00:18:59.643Z,99.90
2019-04-26T00:21:03.856Z,99.90
2019-04-26T00:23:08.058Z,99.90
2019-04-26T00:25:12.493Z,99.90
2019-04-26T00:27:16.904Z,99.90
2019-04-26T00:29:21.208Z,99.90
2019-04-26T00:31:25.000Z,99.90
2019-04-26T00:33:28.869Z,99.90
2019-04-26T00:35:32.731Z,99.90
2019-04-26T00:37:36.524Z,99.90
2019-04-26T00:39:40.373Z,99.90
2019-04-26T00:41:44.426Z,99.90
2019-04-26T00:43:49.057Z,99.90
2019-04-26T00:45:53.829Z,99.90
2019-04-26T00:47:58.546Z,99.90
2019-04-26T00:50:03.274Z,99.90
2019-04-26T00:52:08.000Z,99.90
2019-04-26T00:54:14.082Z,99.90
2019-04-26T00:56:18.642Z,99.90
2019-04-26T00:58:24.485Z,99.90
2019-04-26T01:00:28.523Z,99.90
2019-04-26T01:02:42.732Z,99.90
2019-04-26T01:04:46.595Z,99.90
2019-04-26T01:06:51.329Z,99.90
2019-04-26T01:08:55.187Z,99.90
2019-04-26T01:10:59.018Z,99.90
2019-04-26T01:13:02.801Z,99.90
2019-04-26T01:15:09.162Z,99.90
2019-04-26T01:17:13.015Z,99.90
2019-04-26T01:19:18.572Z,99.90
2019-04-26T01:21:25.538Z,99.90
2019-04-26T01:23:32.553Z,99.90
2019-04-26T01:25:42.604Z,99.90
2019-04-26T01:27:46.543Z,99.90
2019-04-26T01:29:53.879Z,99.90
2019-04-26T01:32:04.364Z,99.90
2019-04-26T01:34:08.217Z,99.90
2019-04-26T01:36:13.646Z,99.90
2019-04-26T01:38:17.973Z,99.90
2019-04-26T01:40:24.106Z,99.90
2019-04-26T01:42:47.254Z,99.90
2019-04-26T01:45:00.886Z,99.90
2019-04-26T01:47:04.829Z,99.90
2019-04-26T01:49:11.446Z,99.90
2019-04-26T01:51:21.263Z,99.90
2019-04-26T01:53:26.624Z,99.90
2019-04-26T01:55:32.368Z,99.90
2019-04-26T01:57:36.907Z,99.90
2019-04-26T01:59:44.710Z,99.90
2019-04-26T02:02:07.943Z,99.90
2019-04-26T02:04:12.080Z,99.90
2019-04-26T02:06:25.297Z,99.90
2019-04-26T02:08:22.096Z,99.90
2019-04-26T02:10:28.694Z,99.90
2019-04-26T02:12:33.134Z,99.90
2019-04-26T02:14:37.052Z,99.90
2019-04-26T02:16:41.920Z,99.90
2019-04-26T02:18:45.951Z,99.90
2019-04-26T02:21:26.349Z,99.90
2019-04-26T02:23:35.242Z,99.90
2019-04-26T02:25:39.206Z,99.90
2019-04-26T02:27:43.343Z,99.90
2019-04-26T02:29:47.283Z,99.90
2019-04-26T02:31:54.187Z,99.90
2019-04-26T02:33:58.623Z,99.90
2019-04-26T02:36:02.500Z,99.90
2019-04-26T02:38:06.398Z,99.90
2019-04-26T02:40:14.548Z,99.90
2019-04-26T02:42:26.588Z,99.90
2019-04-26T02:44:51.724Z,99.90
2019-04-26T02:47:28.479Z,99.90
2019-04-26T02:49:39.345Z,99.90
2019-04-26T02:51:49.777Z,99.90
2019-04-26T02:54:08.816Z,99.90
2019-04-26T02:56:24.962Z,99.90
2019-04-26T02:58:33.789Z,99.90
2019-04-26T03:00:39.162Z,99.90
2019-04-26T03:02:46.553Z,99.90
2019-04-26T03:04:53.070Z,99.90
2019-04-26T03:07:03.447Z,99.90
2019-04-26T03:09:07.454Z,99.90
2019-04-26T03:11:18.052Z,99.90
2019-04-26T03:13:53.265Z,99.90
2019-04-26T03:16:24.057Z,99.90
2019-04-26T03:18:39.417Z,99.90
2019-04-26T03:20:46.274Z,99.90
2019-04-26T03:23:02.164Z,99.90
2019-04-26T03:25:33.343Z,99.90
2019-04-26T03:28:00.530Z,99.90
2019-04-26T03:30:22.813Z,99.90
2019-04-26T03:32:54.109Z,99.90
2019-04-26T03:35:29.864Z,99.90
2019-04-26T03:37:58.882Z,99.90
2019-04-26T03:40:34.640Z,99.90
2019-04-26T03:43:20.520Z,99.90
2019-04-26T03:45:45.884Z,99.90
2019-04-26T03:48:03.369Z,99.90
2019-04-26T03:50:18.998Z,99.90
2019-04-26T03:53:14.771Z,99.90
2019-04-26T03:55:53.199Z,99.90
2019-04-26T03:58:03.524Z,99.90
2019-04-26T04:00:28.749Z,99.90
2019-04-26T04:02:52.345Z,99.90
2019-04-26T04:05:11.372Z,99.90
2019-04-26T04:07:18.232Z,99.90
2019-04-26T04:09:23.702Z,99.90
2019-04-26T04:11:38.492Z,99.90
2019-04-26T04:13:54.401Z,99.90
2019-04-26T04:15:58.646Z,99.90
2019-04-26T04:18:09.426Z,99.90
2019-04-26T04:20:52.221Z,99.90
2019-04-26T04:23:32.841Z,99.90
2019-04-26T04:25:45.358Z,99.90
2019-04-26T04:28:04.856Z,99.90
2019-04-26T04:30:28.365Z,99.90
2019-04-26T04:32:49.949Z,99.90
2019-04-26T04:34:57.376Z,99.90
2019-04-26T04:37:04.260Z,99.90
2019-04-26T04:39:12.991Z,99.90
2019-04-26T04:41:29.282Z,99.90
2019-04-26T04:43:42.548Z,99.90
2019-04-26T04:46:30.626Z,99.90
2019-04-26T04:49:06.879Z,99.90
2019-04-26T04:51:25.999Z,99.90
2019-04-26T04:53:49.767Z,99.90
2019-04-26T04:56:12.759Z,99.90
2019-04-26T04:58:25.388Z,99.90
2019-04-26T05:01:15.323Z,99.90
2019-04-26T05:03:38.912Z,99.90
2019-04-26T05:06:07.763Z,99.90
2019-04-26T05:08:42.907Z,99.90
2019-04-26T05:11:10.921Z,99.90
2019-04-26T05:13:40.028Z,99.90
2019-04-26T05:16:33.176Z,99.90
2019-04-26T05:19:28.052Z,99.90
2019-04-26T05:22:14.779Z,99.90
2019-04-26T05:24:36.730Z,99.90
2019-04-26T05:27:17.392Z,99.90
2019-04-26T05:29:37.843Z,99.90
2019-04-26T05:31:51.550Z,99.90
2019-04-26T05:34:25.821Z,99.90
2019-04-26T05:37:01.588Z,99.90
2019-04-26T05:39:30.824Z,99.90
2019-04-26T05:41:59.582Z,99.90
2019-04-26T05:44:46.019Z,99.90
2019-04-26T05:47:34.758Z,99.90
2019-04-26T05:50:20.303Z,99.90
2019-04-26T05:52:58.168Z,99.90
2019-04-26T05:55:39.383Z,99.90
2019-04-26T05:58:07.487Z,99.90
2019-04-26T06:00:23.945Z,99.90
2019-04-26T06:03:15.180Z,99.90
2019-04-26T06:06:15.132Z,99.90
2019-04-26T06:08:40.561Z,99.90
2019-04-26T06:10:56.467Z,99.90
2019-04-26T06:13:30.380Z,99.90
2019-04-26T06:15:51.787Z,99.90
2019-04-26T06:18:20.089Z,99.90
2019-04-26T06:20:34.390Z,99.90
2019-04-26T06:23:17.635Z,99.90
2019-04-26T06:25:39.540Z,99.90
2019-04-26T06:28:00.725Z,99.90
2019-04-26T06:30:14.932Z,99.90
2019-04-26T06:32:32.240Z,99.90
2019-04-26T06:35:20.380Z,99.90
2019-04-26T06:37:36.663Z,99.90
2019-04-26T06:40:17.145Z,99.90
2019-04-26T06:43:02.729Z,99.90
2019-04-26T06:45:31.822Z,99.90
2019-04-26T06:48:04.219Z,99.90
2019-04-26T06:50:45.619Z,99.90
2019-04-26T06:53:09.555Z,99.90
2019-04-26T06:55:26.541Z,99.90
2019-04-26T06:58:10.135Z,99.90
2019-04-26T07:00:21.383Z,99.90
2019-04-26T07:02:36.194Z,99.90
2019-04-26T07:05:15.222Z,99.90
2019-04-26T07:08:09.260Z,99.90
2019-04-26T07:10:33.034Z,99.90
2019-04-26T07:13:02.004Z,99.90
2019-04-26T07:15:48.599Z,99.90
2019-04-26T07:18:44.728Z,99.90
2019-04-26T07:21:43.473Z,99.90
2019-04-26T07:24:55.290Z,99.90
2019-04-26T07:30:21.874Z,99.90
2019-04-26T07:33:12.646Z,99.90
2019-04-26T07:35:40.443Z,99.90
2019-04-26T07:38:09.086Z,99.90
2019-04-26T07:41:01.483Z,99.90
2019-04-26T07:44:21.744Z,99.90
2019-04-26T07:50:31.545Z,99.90
2019-04-26T07:53:14.096Z,99.90
2019-04-26T07:56:19.161Z,99.90
2019-04-26T07:58:53.566Z,99.90
2019-04-26T08:01:12.531Z,99.90
2019-04-26T08:03:29.597Z,99.90
2019-04-26T08:05:53.317Z,99.90
2019-04-26T08:08:06.926Z,99.90
2019-04-26T08:10:19.029Z,99.90
2019-04-26T08:13:04.457Z,99.90
2019-04-26T08:15:58.663Z,99.90
2019-04-26T08:18:34.531Z,99.90
2019-04-26T08:20:55.749Z,99.90
2019-04-26T08:23:42.088Z,99.90
2019-04-26T08:26:27.168Z,99.90
2019-04-26T08:29:12.975Z,99.90
2019-04-26T08:33:48.822Z,99.90
2019-04-26T08:36:03.254Z,99.90
2019-04-26T08:55:15.424Z,99.90
2019-04-26T11:27:21.309Z,99.90
2019-04-26T11:36:43.072Z,99.90
2019-04-26T11:40:27.203Z,99.90
2019-04-26T11:42:08.050Z,99.90
2019-04-26T11:48:20.700Z,99.90
2019-04-26T11:50:27.699Z,99.90
2019-04-26T11:52:37.427Z,99.90
2019-04-26T11:54:42.903Z,99.90
2019-04-26T11:56:46.893Z,99.90
2019-04-26T11:59:09.099Z,99.90
2019-04-26T12:01:20.648Z,99.90
2019-04-26T12:03:25.019Z,99.90
2019-04-26T12:05:57.439Z,98.00
2019-04-26T12:08:05.427Z,97.00
2019-04-26T12:10:11.349Z,95.20
2019-04-26T12:12:15.341Z,94.10
2019-04-26T12:14:20.342Z,93.20
2019-04-26T12:16:24.523Z,93.10
2019-04-26T12:18:28.333Z,92.50
2019-04-26T12:20:32.264Z,92.30
2019-04-26T12:22:39.492Z,92.00
2019-04-26T12:24:41.931Z,91.00
2019-04-26T12:26:46.381Z,90.40
2019-04-26T12:28:50.267Z,89.80
2019-04-26T12:30:58.396Z,90.30
2019-04-26T12:32:59.915Z,90.10
2019-04-26T12:35:05.341Z,90.60
2019-04-26T12:37:28.269Z,89.10
2019-04-26T12:39:38.844Z,89.20
2019-04-26T12:42:08.049Z,88.20
2019-04-26T12:47:57.832Z,87.60
2019-04-26T12:50:42.271Z,88.80
2019-04-26T12:53:31.345Z,87.10
2019-04-26T12:55:53.210Z,88.40
2019-04-26T12:58:01.187Z,88.60
2019-04-26T13:00:27.101Z,90.00
2019-04-26T13:02:31.028Z,90.40
2019-04-26T13:04:36.256Z,90.60
2019-04-26T13:06:45.792Z,90.40
2019-04-26T13:08:51.393Z,90.70
2019-04-26T13:11:21.135Z,91.20
2019-04-26T13:13:50.950Z,90.70
2019-04-26T13:16:21.535Z,90.90
2019-04-26T13:18:28.268Z,90.40
2019-04-26T13:20:34.370Z,91.10
2019-04-26T13:22:45.841Z,91.40
2019-04-26T13:24:43.929Z,91.20
2019-04-26T13:26:50.005Z,90.90
2019-04-26T13:29:04.130Z,91.10
2019-04-26T13:31:10.671Z,89.80
2019-04-26T13:34:03.029Z,90.30
2019-04-26T13:44:32.214Z,87.30
2019-04-26T13:51:00.985Z,81.70
2019-04-26T14:02:40.188Z,84.30
2019-04-26T14:05:56.300Z,82.60
2019-04-26T14:07:01.935Z,83.90
2019-04-26T14:09:08.411Z,84.20
2019-04-26T14:11:12.391Z,83.30
2019-04-26T14:13:16.423Z,81.40
2019-04-26T14:15:44.007Z,81.10
2019-04-26T14:18:07.833Z,79.30
2019-04-26T14:20:13.324Z,79.50
2019-04-26T14:23:16.369Z,79.20
2019-04-26T14:25:30.470Z,77.40
2019-04-26T14:27:54.953Z,78.60
2019-04-26T14:30:02.582Z,78.30
2019-04-26T14:32:11.763Z,79.50
2019-04-26T14:34:15.235Z,79.90
2019-04-26T14:36:44.256Z,81.10
2019-04-26T14:41:52.851Z,82.30
2019-04-26T14:45:02.263Z,82.50
2019-04-26T14:47:21.357Z,81.00
2019-04-26T14:50:13.025Z,81.10
2019-04-26T14:52:27.618Z,80.00
2019-04-26T14:55:07.545Z,79.50
2019-04-26T14:57:37.447Z,77.80
2019-04-26T15:00:16.785Z,75.70
2019-04-26T15:02:32.984Z,72.70
2019-04-26T15:04:45.681Z,72.80
2019-04-26T15:06:51.929Z,72.00
2019-04-26T15:12:27.956Z,73.20
2019-04-26T15:15:13.702Z,73.50
2019-04-26T15:17:26.348Z,72.40
2019-04-26T15:32:05.229Z,71.90
2019-04-26T15:41:05.576Z,73.00
2019-04-26T15:43:51.918Z,72.80
2019-04-26T15:53:30.034Z,71.90
2019-04-26T15:56:05.291Z,70.90
2019-04-26T15:59:08.745Z,69.80
2019-04-26T16:07:38.882Z,66.50
2019-04-26T16:09:43.530Z,66.30
2019-04-26T16:11:49.792Z,66.80
2019-04-26T16:13:55.456Z,66.90
2019-04-26T16:15:59.713Z,66.50
2019-04-26T16:18:04.244Z,66.70
2019-04-26T16:20:08.806Z,66.00
2019-04-26T16:22:12.906Z,65.00
2019-04-26T16:24:17.225Z,65.90
2019-04-26T16:26:22.802Z,65.20
2019-04-26T16:28:43.025Z,65.30
2019-04-26T16:31:06.650Z,65.60
2019-04-26T16:33:24.018Z,67.10
2019-04-26T16:36:24.005Z,67.00
2019-04-26T16:38:57.885Z,68.00
2019-04-26T16:41:33.883Z,69.50
2019-04-26T16:44:29.853Z,69.60
2019-04-26T16:47:05.746Z,71.00
2019-04-26T16:49:45.215Z,71.20
2019-04-26T16:52:10.414Z,70.30
2019-04-26T16:55:02.823Z,71.00
2019-04-26T16:58:08.060Z,71.40
2019-04-26T17:01:04.698Z,72.20
2019-04-26T17:10:08.691Z,73.70
2019-04-26T17:15:57.997Z,72.40
2019-04-26T17:18:35.733Z,73.90
2019-04-26T17:29:09.935Z,71.90
2019-04-26T17:34:52.290Z,71.60
2019-04-26T17:37:44.469Z,71.50
2019-04-26T17:39:52.213Z,71.60
2019-04-26T17:42:10.607Z,72.00
2019-04-26T17:47:01.565Z,72.40
2019-04-26T17:49:27.151Z,73.10
2019-04-26T18:00:07.195Z,74.20
2019-04-26T18:21:43.687Z,80.00
2019-04-26T18:27:45.242Z,81.90
2019-04-26T19:56:39.532Z,99.90
2019-04-26T19:59:27.560Z,99.90
2019-04-26T20:01:30.091Z,99.90
2019-04-26T20:03:34.122Z,99.90
2019-04-26T20:05:40.450Z,99.90
2019-04-26T20:08:07.797Z,99.90
2019-04-26T20:10:12.870Z,99.90
2019-04-26T20:12:25.175Z,99.90
2019-04-26T20:14:39.812Z,99.90
2019-04-26T20:16:36.460Z,99.90
2019-04-26T20:18:39.877Z,99.90
2019-04-26T20:20:43.743Z,99.90
2019-04-26T20:22:47.944Z,99.90
2019-04-26T20:24:53.815Z,99.90
2019-04-26T20:26:57.516Z,99.90
2019-04-26T20:31:55.754Z,99.90
2019-04-26T20:34:01.346Z,99.90
2019-04-26T20:36:05.706Z,99.90
2019-04-26T20:38:11.721Z,99.90
2019-04-26T20:40:21.831Z,99.90
2019-04-26T20:42:22.939Z,99.90
2019-04-26T20:44:39.175Z,99.90
2019-04-26T20:46:37.623Z,99.90
2019-04-26T20:48:39.923Z,99.90
2019-04-26T20:50:43.937Z,99.90
2019-04-26T20:54:54.064Z,99.90
2019-04-26T20:56:57.316Z,99.90
2019-04-26T20:59:01.585Z,99.90
2019-04-26T21:01:12.482Z,99.90
2019-04-26T21:03:22.760Z,99.90
2019-04-26T21:05:18.808Z,99.90
2019-04-26T21:07:23.126Z,99.90
2019-04-26T21:09:27.316Z,99.90
2019-04-26T21:11:37.275Z,99.90
2019-04-26T21:13:43.379Z,99.90
2019-04-26T21:16:02.644Z,99.90
2019-04-26T21:18:13.068Z,99.90
2019-04-26T21:20:22.222Z,99.90
2019-04-26T21:22:28.716Z,99.90
2019-04-26T21:24:36.758Z,99.90
2019-04-26T21:26:57.399Z,99.90
2019-04-26T21:29:21.903Z,99.90
2019-04-26T21:31:36.309Z,99.90
2019-04-26T21:33:43.611Z,99.90
2019-04-26T21:35:57.654Z,99.90
2019-04-26T21:41:24.425Z,99.90
2019-04-26T21:43:29.604Z,99.90
2019-04-26T21:46:07.685Z,99.90
2019-04-26T21:48:02.618Z,99.90
2019-04-26T21:50:07.892Z,99.90
2019-04-26T21:52:34.301Z,99.90
2019-04-26T21:54:38.418Z,99.90
2019-04-26T21:56:48.364Z,99.90
2019-04-26T21:58:48.303Z,99.90
2019-04-26T22:01:15.003Z,99.90
2019-04-26T22:03:16.949Z,99.90
2019-04-26T22:05:21.025Z,99.90
2019-04-26T22:07:35.153Z,99.90
2019-04-26T22:10:16.722Z,99.90
2019-04-26T22:15:54.729Z,99.90
2019-04-26T22:22:18.958Z,99.90
2019-04-26T22:26:13.652Z,99.90
2019-04-26T22:35:58.892Z,99.90
2019-04-26T22:39:48.180Z,99.90
2019-04-26T22:45:44.119Z,99.90
2019-04-26T22:49:00.625Z,99.90
2019-04-26T22:52:06.220Z,99.90
2019-04-26T22:55:27.501Z,99.90
2019-04-26T23:05:53.293Z,99.90
2019-04-26T23:20:57.116Z,99.90
2019-04-26T23:24:23.913Z,99.90
2019-04-26T23:40:28.779Z,99.90
2019-04-26T23:47:01.427Z,99.90
2019-04-26T23:56:25.448Z,99.90
